Time;durP1;ratioP1;P1;durP2;ratioP2;P2;SDS_P1;SDS_P2;PMS_P1;PMS_P2;Temp;Humidity;BMP_temperature;BMP_pressure;BME280_temperature;BME280_humidity;BME280_pressure;Samples;Min_cycle;Max_cycle;Signal;HPM_P1;HPM_P2
2022/10/01 00:00:49;;;;;;;20.80;14.50;;;;;;;7.34;84.56;99998.25;2119850;81;20989;-73
2022/10/01 00:03:50;;;;;;;26.25;16.25;;;;;;;7.35;84.74;99984.09;2115090;81;21087;-72
2022/10/01 00:06:52;;;;;;;32.63;18.50;;;;;;;7.37;85.07;99984.25;2094548;83;21037;-73
2022/10/01 00:09:53;;;;;;;30.88;18.05;;;;;;;7.38;85.20;99976.69;2121168;81;21038;-73
2022/10/01 00:12:54;;;;;;;31.23;18.02;;;;;;;7.38;85.40;99985.11;2120172;81;21118;-72
2022/10/01 00:15:56;;;;;;;30.48;17.80;;;;;;;7.39;85.55;99984.11;2118345;81;21144;-73
2022/10/01 00:18:59;;;;;;;26.42;16.67;;;;;;;7.39;85.58;99982.80;2111794;82;21028;-72
2022/10/01 00:22:00;;;;;;;29.32;16.73;;;;;;;7.39;85.77;99977.52;2121440;81;21025;-72
2022/10/01 00:25:03;;;;;;;26.37;16.87;;;;;;;7.36;85.83;99973.36;2111785;81;20996;-72
2022/10/01 00:28:04;;;;;;;28.80;17.02;;;;;;;7.39;86.01;99984.11;2109440;83;21062;-72
2022/10/01 00:31:07;;;;;;;25.88;16.75;;;;;;;7.36;86.02;99976.50;2105475;81;22089;-75
2022/10/01 00:34:13;;;;;;;27.70;18.17;;;;;;;7.35;86.10;99977.00;2115353;81;21112;-72
2022/10/01 00:37:16;;;;;;;25.60;15.78;;;;;;;7.31;86.08;99980.06;2114482;81;21584;-72
2022/10/01 00:40:20;;;;;;;29.05;17.10;;;;;;;7.31;86.28;99977.43;2110482;81;21488;-73
2022/10/01 00:43:28;;;;;;;21.60;15.25;;;;;;;7.28;86.17;99975.09;2126598;81;21053;-72
2022/10/01 00:46:42;;;;;;;24.30;16.80;;;;;;;7.23;86.25;99973.38;2113775;81;21063;-72
2022/10/01 00:49:46;;;;;;;29.98;16.93;;;;;;;7.23;86.26;99974.70;2106454;81;21552;-72
2022/10/01 00:52:51;;;;;;;26.30;17.20;;;;;;;7.22;86.31;99973.88;2113454;81;22281;-72
2022/10/01 00:55:58;;;;;;;21.77;14.58;;;;;;;7.21;86.29;99977.97;2113430;81;21062;-72
2022/10/01 00:59:00;;;;;;;22.45;14.30;;;;;;;7.22;86.30;99982.29;2096746;82;21513;-74
2022/10/01 01:02:01;;;;;;;23.50;14.70;;;;;;;7.18;85.99;99986.55;2118079;82;21074;-73
2022/10/01 01:05:04;;;;;;;24.55;15.93;;;;;;;7.13;85.51;99984.83;2101898;81;21066;-73
2022/10/01 01:08:08;;;;;;;33.53;15.53;;;;;;;7.11;85.70;99985.95;2111400;81;21555;-72
2022/10/01 01:11:23;;;;;;;22.13;12.98;;;;;;;7.07;85.93;99978.83;2110859;82;21033;-72
2022/10/01 01:14:30;;;;;;;145.12;16.65;;;;;;;7.00;85.80;99972.97;2110188;83;21551;-72
2022/10/01 01:17:40;;;;;;;64.65;13.13;;;;;;;6.89;85.69;99973.49;2110790;81;21027;-73
2022/10/01 01:21:12;;;;;;;25.20;14.28;;;;;;;6.83;86.11;99967.98;2102626;81;21090;-74
2022/10/01 01:24:31;;;;;;;35.25;10.70;;;;;;;6.79;85.82;99961.35;2109045;82;21109;-72
2022/10/01 01:27:58;;;;;;;75.45;12.25;;;;;;;6.72;85.92;99959.77;2113455;82;21008;-73
2022/10/01 01:31:04;;;;;;;64.20;10.72;;;;;;;6.64;85.46;99959.17;2115969;83;21038;-73
2022/10/01 01:34:11;;;;;;;100.65;10.93;;;;;;;6.53;85.65;99962.48;2107368;81;21158;-72
2022/10/01 01:37:16;;;;;;;84.67;12.95;;;;;;;6.46;85.81;99959.60;2113668;82;21053;-74
2022/10/01 01:40:20;;;;;;;16.62;13.00;;;;;;;6.42;85.97;99956.43;2089295;82;21120;-73
2022/10/01 01:43:30;;;;;;;36.77;18.60;;;;;;;6.41;85.79;99964.47;2123795;81;21069;-73
2022/10/01 01:46:35;;;;;;;128.17;18.23;;;;;;;6.38;85.91;99956.36;2109371;81;21663;-73
2022/10/01 01:49:41;;;;;;;157.35;15.90;;;;;;;6.33;85.71;99950.68;2106437;81;21034;-73
2022/10/01 01:52:42;;;;;;;57.23;11.97;;;;;;;6.24;85.92;99951.55;2109433;82;21512;-72
2022/10/01 01:55:46;;;;;;;71.40;12.37;;;;;;;6.16;86.19;99949.62;2118488;82;21104;-73
2022/10/01 01:58:48;;;;;;;85.22;11.45;;;;;;;6.09;86.17;99951.17;2118333;81;21133;-73
2022/10/01 02:01:49;;;;;;;166.70;12.78;;;;;;;6.02;86.12;99952.70;2127226;81;22288;-74
2022/10/01 02:05:02;;;;;;;118.05;10.82;;;;;;;5.95;86.13;99943.72;2104865;81;20994;-75
2022/10/01 02:08:21;;;;;;;41.35;10.60;;;;;;;5.79;85.89;99949.02;2106838;81;20991;-73
2022/10/01 02:11:32;;;;;;;69.90;11.43;;;;;;;5.75;86.20;99954.23;2060265;84;21059;-73
2022/10/01 02:14:42;;;;;;;57.15;11.33;;;;;;;5.76;86.47;99951.94;2043919;85;21061;-72
2022/10/01 02:18:09;;;;;;;45.45;10.88;;;;;;;5.72;86.21;99949.25;2109356;81;21596;-75
2022/10/01 02:21:52;;;;;;;19.40;12.75;;;;;;;5.67;85.97;99943.57;2039935;85;21085;-74
2022/10/01 02:24:57;;;;;;;70.15;15.23;;;;;;;5.64;85.93;99941.22;2099322;81;21037;-72
2022/10/01 02:28:04;;;;;;;69.65;15.50;;;;;;;5.54;86.12;99933.80;2048405;84;21136;-73
2022/10/01 02:31:07;;;;;;;27.95;13.95;;;;;;;5.56;86.76;99931.87;2047573;84;21039;-72
2022/10/01 02:34:10;;;;;;;27.50;17.12;;;;;;;5.65;87.56;99928.88;2054606;84;21078;-72
2022/10/01 02:37:12;;;;;;;53.08;16.55;;;;;;;5.69;87.78;99924.53;2045034;84;21025;-72
2022/10/01 02:40:17;;;;;;;51.65;20.25;;;;;;;5.75;88.03;99921.82;2058682;84;21102;-72
2022/10/01 02:43:32;;;;;;;73.57;19.30;;;;;;;5.78;88.21;99914.95;2043850;84;21099;-72
2022/10/01 02:46:57;;;;;;;96.55;20.68;;;;;;;5.82;88.21;99918.95;2051573;85;21544;-75
2022/10/01 02:49:59;;;;;;;69.60;20.57;;;;;;;5.88;88.51;99918.38;2008470;84;21431;-72
2022/10/01 02:53:14;;;;;;;77.22;20.10;;;;;;;5.93;88.61;99917.97;2061446;84;21054;-72
2022/10/01 02:57:21;;;;;;;59.42;20.90;;;;;;;5.97;88.71;99915.41;2044162;84;21572;-73
2022/10/01 02:59:22;;;;;;;84.72;19.23;;;;;;;6.00;88.62;99912.53;2103384;82;21104;-73
2022/10/01 03:02:30;;;;;;;101.22;22.13;;;;;;;6.01;88.39;99913.69;2101121;82;21019;-73
2022/10/01 03:05:28;;;;;;;106.40;21.33;;;;;;;6.03;88.48;99910.43;2101994;81;21121;-74
2022/10/01 03:08:30;;;;;;;94.37;23.47;;;;;;;6.07;88.69;99904.38;2111368;81;21117;-74
2022/10/01 03:11:31;;;;;;;128.78;23.25;;;;;;;6.11;88.96;99914.14;2102654;82;21576;-74
2022/10/01 03:14:32;;;;;;;133.70;23.32;;;;;;;6.14;89.09;99909.44;2100146;81;21350;-74
2022/10/01 03:17:36;;;;;;;134.97;25.40;;;;;;;6.18;89.26;99910.80;2098156;82;21078;-74
2022/10/01 03:20:37;;;;;;;183.52;24.07;;;;;;;6.22;89.41;99908.23;2097540;81;21604;-74
2022/10/01 03:23:38;;;;;;;153.78;25.50;;;;;;;6.27;89.61;99903.34;2059723;84;21118;-73
2022/10/01 03:26:39;;;;;;;114.65;25.30;;;;;;;6.32;89.76;99906.05;2102530;81;21116;-73
2022/10/01 03:29:40;;;;;;;117.35;25.48;;;;;;;6.36;89.93;99900.81;2102685;83;21139;-74
2022/10/01 03:32:41;;;;;;;;;;;;;;;6.42;89.99;99902.86;2113607;82;21843;-73
2022/10/01 03:35:42;;;;;;;158.57;23.35;;;;;;;6.45;89.99;99903.92;2109806;81;20625;-74
2022/10/01 03:38:43;;;;;;;160.28;24.87;;;;;;;6.47;90.13;99901.95;2108548;81;21102;-74
2022/10/01 03:41:45;;;;;;;147.98;24.77;;;;;;;6.50;90.18;99900.33;2123242;81;21130;-73
2022/10/01 03:44:47;;;;;;;149.75;24.63;;;;;;;6.53;90.29;99897.41;2109576;81;21136;-73
2022/10/01 03:47:52;;;;;;;137.40;22.40;;;;;;;6.56;90.31;99895.82;2111668;81;21115;-73
2022/10/01 03:50:56;;;;;;;67.78;20.15;;;;;;;6.53;90.34;99896.58;2118076;81;21118;-73
2022/10/01 03:53:58;;;;;;;108.90;22.40;;;;;;;6.48;90.56;99894.41;2102591;81;21054;-74
2022/10/01 03:56:59;;;;;;;79.72;22.73;;;;;;;6.46;90.64;99895.03;2127599;81;21042;-73
2022/10/01 04:00:00;;;;;;;109.85;24.77;;;;;;;6.46;90.82;99885.80;2107036;81;21103;-73
2022/10/01 04:03:01;;;;;;;117.30;24.95;;;;;;;6.43;90.88;99887.41;2106895;82;21628;-76
2022/10/01 04:06:03;;;;;;;107.50;23.07;;;;;;;6.44;90.92;99883.79;2108648;81;21568;-74
2022/10/01 04:09:04;;;;;;;95.10;22.87;;;;;;;6.44;91.00;99888.56;2101144;82;21019;-74
2022/10/01 04:12:05;;;;;;;92.20;22.73;;;;;;;6.44;91.12;99893.84;2100214;82;21573;-74
2022/10/01 04:15:08;;;;;;;122.30;25.52;;;;;;;6.43;91.18;99890.88;2109067;81;21026;-73
2022/10/01 04:18:09;;;;;;;100.35;23.15;;;;;;;6.43;91.34;99886.09;2094279;82;22235;-73
2022/10/01 04:21:11;;;;;;;54.80;21.40;;;;;;;6.42;91.39;99880.46;2124515;83;21049;-76
2022/10/01 04:24:12;;;;;;;68.78;23.40;;;;;;;6.39;91.41;99876.34;2123623;81;21095;-73
2022/10/01 04:27:14;;;;;;;82.42;24.05;;;;;;;6.38;91.50;99876.47;2104225;82;21125;-73
2022/10/01 04:30:15;;;;;;;77.92;24.52;;;;;;;6.38;91.57;99868.56;2101471;81;21067;-73
2022/10/01 04:33:17;;;;;;;100.07;25.12;;;;;;;6.37;91.58;99862.96;2116406;81;21004;-74
2022/10/01 04:36:18;;;;;;;81.90;25.68;;;;;;;6.40;91.67;99868.77;2105447;82;21066;-73
2022/10/01 04:39:19;;;;;;;59.35;23.27;;;;;;;6.38;91.67;99865.44;2103557;82;20971;-75
2022/10/01 04:42:21;;;;;;;45.23;22.30;;;;;;;6.38;91.64;99858.84;2111936;81;21041;-74
2022/10/01 04:45:22;;;;;;;56.05;24.05;;;;;;;6.38;91.69;99868.56;2113995;83;21061;-74
2022/10/01 04:48:24;;;;;;;68.47;25.77;;;;;;;6.38;91.76;99868.56;2123895;82;21076;-74
2022/10/01 04:51:25;;;;;;;50.88;25.75;;;;;;;6.40;91.85;99870.08;2117256;81;20997;-73
2022/10/01 04:54:26;;;;;;;54.23;25.90;;;;;;;6.47;92.01;99873.77;2119920;81;21122;-73
2022/10/01 04:57:28;;;;;;;53.80;24.37;;;;;;;6.54;92.09;99874.05;2119576;81;21038;-74
2022/10/01 05:00:29;;;;;;;73.65;25.57;;;;;;;6.60;92.14;99877.41;2125837;82;21026;-73
2022/10/01 05:03:30;;;;;;;54.00;24.70;;;;;;;6.62;91.88;99881.23;2114033;81;21051;-75
2022/10/01 05:06:31;;;;;;;42.15;24.07;;;;;;;6.59;91.68;99880.17;2114786;82;21090;-74
2022/10/01 05:09:33;;;;;;;50.88;24.37;;;;;;;6.56;91.64;99879.15;2115434;82;21478;-75
2022/10/01 05:12:34;;;;;;;52.58;24.23;;;;;;;6.57;91.78;99877.70;2126122;81;21077;-74
2022/10/01 05:15:35;;;;;;;65.42;23.85;;;;;;;6.60;91.81;99882.67;2122651;81;21085;-75
2022/10/01 05:18:39;;;;;;;45.60;21.12;;;;;;;6.64;91.78;99882.71;2112557;83;21097;-74
2022/10/01 05:21:40;;;;;;;40.10;21.77;;;;;;;6.61;91.57;99879.55;2125906;81;21078;-75
2022/10/01 05:24:42;;;;;;;48.90;20.50;;;;;;;6.57;91.59;99879.02;2122535;81;21068;-75
2022/10/01 05:27:44;;;;;;;47.20;21.12;;;;;;;6.56;91.61;99872.09;2108499;82;21129;-75
2022/10/01 05:30:45;;;;;;;29.77;18.98;;;;;;;6.54;91.88;99878.48;2111039;82;21022;-74
2022/10/01 05:33:46;;;;;;;59.80;22.62;;;;;;;6.51;91.79;99878.29;2110331;83;21066;-75
2022/10/01 05:36:47;;;;;;;51.83;21.35;;;;;;;6.49;91.87;99879.73;2111634;82;21531;-74
2022/10/01 05:39:49;;;;;;;53.20;22.62;;;;;;;6.49;91.95;99875.78;2114786;81;21027;-74
2022/10/01 05:42:50;;;;;;;35.63;21.42;;;;;;;6.51;92.09;99873.84;2121257;81;21065;-74
2022/10/01 05:45:51;;;;;;;41.95;22.20;;;;;;;6.52;92.13;99873.34;2110271;81;21498;-75
2022/10/01 05:48:52;;;;;;;33.45;20.35;;;;;;;6.54;92.27;99868.77;2099517;81;21104;-76
2022/10/01 05:51:53;;;;;;;50.15;21.55;;;;;;;6.61;92.54;99865.05;2122594;81;21097;-75
2022/10/01 05:54:54;;;;;;;34.63;22.10;;;;;;;6.70;92.51;99866.79;2106985;81;21035;-74
2022/10/01 05:57:58;;;;;;;34.85;23.73;;;;;;;6.74;92.39;99863.72;2115582;81;21839;-72
2022/10/01 06:00:59;;;;;;;40.58;22.15;;;;;;;6.83;92.38;99867.77;2111106;81;21053;-73
2022/10/01 06:04:01;;;;;;;50.73;22.15;;;;;;;6.89;92.42;99866.67;2110406;81;21091;-73
2022/10/01 06:07:02;;;;;;;44.95;22.10;;;;;;;6.99;92.51;99860.52;2106016;82;22018;-81
2022/10/01 06:10:05;;;;;;;48.90;21.55;;;;;;;7.07;92.33;99860.61;2121938;81;21030;-76
2022/10/01 06:13:07;;;;;;;35.52;22.22;;;;;;;7.13;92.38;99856.86;2119212;82;21667;-78
2022/10/01 06:16:08;;;;;;;38.38;22.10;;;;;;;7.14;92.13;99858.51;2113228;81;21100;-78
2022/10/01 06:19:09;;;;;;;51.15;19.82;;;;;;;7.20;92.19;99853.12;2108541;83;21053;-81
2022/10/01 06:22:10;;;;;;;36.73;18.67;;;;;;;7.23;92.13;99849.34;2123786;81;21088;-79
2022/10/01 06:25:14;;;;;;;35.30;19.95;;;;;;;7.15;91.67;99855.38;2120234;81;21104;-81
2022/10/01 06:28:15;;;;;;;40.38;19.85;;;;;;;7.11;91.75;99860.13;2119968;82;21058;-83
2022/10/01 06:31:17;;;;;;;30.50;19.32;;;;;;;7.16;92.09;99865.80;2112611;82;21009;-75
2022/10/01 06:34:18;;;;;;;32.45;21.80;;;;;;;7.25;92.32;99862.73;2117454;82;21497;-75
2022/10/01 06:37:19;;;;;;;24.57;18.82;;;;;;;7.33;92.43;99866.77;2119188;83;21081;-77
2022/10/01 06:40:20;;;;;;;32.60;22.15;;;;;;;7.40;92.35;99869.16;2127294;81;20986;-75
2022/10/01 06:43:24;;;;;;;26.48;20.92;;;;;;;7.43;92.18;99867.98;2112608;82;21557;-76
2022/10/01 06:46:25;;;;;;;31.05;20.52;;;;;;;7.57;92.70;99863.52;2115809;81;21457;-75
2022/10/01 06:49:26;;;;;;;30.55;22.15;;;;;;;7.75;92.60;99856.03;2119906;81;21103;-73
2022/10/01 06:55:48;;;;;;;27.93;20.72;;;;;;;7.90;92.49;99856.29;2117817;81;21069;-77
2022/10/01 06:58:49;;;;;;;28.73;21.20;;;;;;;8.15;92.71;99849.33;2106479;82;21109;-78
2022/10/01 07:01:52;;;;;;;28.52;21.87;;;;;;;8.39;92.54;99854.77;2117807;81;21558;-77
2022/10/01 07:04:58;;;;;;;27.90;21.55;;;;;;;8.64;92.42;99854.34;2113311;82;21057;-79
2022/10/01 07:08:00;;;;;;;28.15;21.60;;;;;;;8.79;91.95;99851.92;2114427;82;21045;-77
2022/10/01 07:11:03;;;;;;;26.80;20.30;;;;;;;8.99;91.71;99848.48;2121251;81;21046;-77
2022/10/01 07:14:05;;;;;;;27.77;20.48;;;;;;;9.21;91.62;99853.65;2118952;81;21489;-75
2022/10/01 07:17:06;;;;;;;27.62;20.65;;;;;;;9.30;91.15;99847.86;2124991;81;21059;-78
2022/10/01 07:20:08;;;;;;;28.12;20.52;;;;;;;9.36;90.89;99835.28;2121932;82;21505;-78
2022/10/01 07:23:12;;;;;;;25.57;20.52;;;;;;;9.55;90.92;99826.17;2105743;81;21497;-79
2022/10/01 07:26:14;;;;;;;25.10;18.85;;;;;;;9.82;90.65;99817.83;2107588;81;21022;-79
2022/10/01 07:29:15;;;;;;;21.95;18.05;;;;;;;10.31;91.30;99823.02;2095301;81;21607;-78
2022/10/01 07:32:16;;;;;;;27.07;19.75;;;;;;;10.55;89.78;99814.61;2120155;81;21041;-79
2022/10/01 07:35:19;;;;;;;22.27;17.17;;;;;;;10.80;90.32;99815.81;2107799;81;21059;-80
2022/10/01 07:38:20;;;;;;;22.35;17.65;;;;;;;11.21;89.73;99813.70;2110788;82;21111;-81
2022/10/01 07:41:21;;;;;;;21.20;17.23;;;;;;;11.73;89.88;99816.05;2106371;81;21348;-73
2022/10/01 07:44:22;;;;;;;23.75;15.95;;;;;;;12.41;89.41;99805.65;2107579;81;21081;-73
2022/10/01 07:47:25;;;;;;;23.42;15.70;;;;;;;12.83;86.89;99804.08;2118092;81;21002;-74
2022/10/01 07:50:31;;;;;;;18.73;15.80;;;;;;;13.01;85.09;99796.50;2081273;83;21107;-74
2022/10/01 07:53:33;;;;;;;18.15;15.23;;;;;;;13.25;84.83;99798.44;2105971;82;21071;-74
2022/10/01 07:56:35;;;;;;;19.75;15.60;;;;;;;13.44;84.61;99783.67;2104182;81;21066;-75
2022/10/01 07:59:37;;;;;;;16.20;14.50;;;;;;;13.63;84.32;99786.17;2116907;81;21540;-74
2022/10/01 08:02:38;;;;;;;17.98;14.05;;;;;;;14.03;84.36;99788.56;2108632;82;21089;-73
2022/10/01 08:05:45;;;;;;;15.35;13.72;;;;;;;14.50;83.87;99786.08;2121333;83;21104;-73
2022/10/01 08:08:45;;;;;;;18.87;13.22;;;;;;;14.99;82.30;99786.34;2114922;81;21054;-78
2022/10/01 08:11:47;;;;;;;15.15;12.25;;;;;;;15.29;81.32;99784.12;2113785;81;21114;-73
2022/10/01 08:14:48;;;;;;;15.03;13.13;;;;;;;15.49;80.46;99785.45;2113722;81;21114;-74
2022/10/01 08:17:49;;;;;;;16.82;13.03;;;;;;;15.58;79.66;99782.86;2120314;82;21007;-73
2022/10/01 08:20:51;;;;;;;13.65;10.75;;;;;;;15.89;79.73;99785.41;2129564;81;21362;-84
2022/10/01 08:23:53;;;;;;;15.08;11.55;;;;;;;16.19;74.54;99774.19;2102522;82;21057;-90
2022/10/01 08:26:55;;;;;;;16.10;11.40;;;;;;;16.12;76.04;99778.24;2095894;83;21075;-90
2022/10/01 08:29:56;;;;;;;13.43;10.53;;;;;;;16.26;75.83;99776.34;2103466;82;21000;-88
2022/10/01 08:33:00;;;;;;;12.85;11.10;;;;;;;16.45;75.89;99773.28;2106358;82;21038;-87
2022/10/01 08:36:06;;;;;;;11.80;10.30;;;;;;;16.75;75.06;99767.66;2112609;81;21051;-88
2022/10/01 08:39:07;;;;;;;14.78;10.98;;;;;;;16.79;72.80;99763.53;2109106;82;21058;-88
2022/10/01 08:42:46;;;;;;;13.20;10.13;;;;;;;16.85;72.81;99761.84;2112773;81;21133;-88
2022/10/01 08:45:52;;;;;;;14.25;10.10;;;;;;;17.01;73.13;99753.28;2108630;81;21343;-82
2022/10/01 08:49:08;;;;;;;11.08;9.83;;;;;;;17.24;72.16;99743.30;2116321;82;21045;-86
2022/10/01 08:52:22;;;;;;;14.83;10.03;;;;;;;17.51;71.87;99733.66;2104464;82;21121;-88
2022/10/01 08:55:27;;;;;;;11.88;10.38;;;;;;;17.64;69.29;99724.67;2100953;81;21073;-88
2022/10/01 08:58:39;;;;;;;10.50;9.45;;;;;;;17.11;68.95;99730.52;2123128;81;21018;-89
2022/10/01 09:01:39;;;;;;;13.25;11.12;;;;;;;16.62;67.67;99724.05;2126574;81;21018;-86
2022/10/01 09:04:41;;;;;;;11.78;10.35;;;;;;;16.16;69.24;99729.12;2117274;82;21152;-87
2022/10/01 09:08:23;;;;;;;13.40;10.48;;;;;;;15.84;69.48;99717.00;2125010;81;21065;-88
2022/10/01 09:12:05;;;;;;;14.73;11.43;;;;;;;15.63;69.68;99713.53;2109872;81;21071;-87
2022/10/01 09:15:20;;;;;;;12.53;10.78;;;;;;;15.22;70.18;99703.10;2104998;81;21058;-85
2022/10/01 09:18:59;;;;;;;12.23;10.90;;;;;;;15.11;70.86;99703.20;2109023;82;21170;-87
2022/10/01 09:22:08;;;;;;;15.38;11.25;;;;;;;15.18;71.68;99693.35;2121674;81;21552;-86
2022/10/01 09:25:23;;;;;;;16.30;11.63;;;;;;;15.10;71.19;99687.39;2100608;81;21377;-85
2022/10/01 09:28:32;;;;;;;13.28;11.38;;;;;;;14.88;70.55;99677.43;2080021;83;22984;-87
2022/10/01 09:31:39;;;;;;;12.03;10.65;;;;;;;14.60;70.79;99682.44;2080443;83;21060;-85
2022/10/01 09:34:43;;;;;;;12.78;11.22;;;;;;;14.40;71.32;99685.56;2105918;81;21104;-81
2022/10/01 09:37:50;;;;;;;14.45;11.10;;;;;;;14.21;72.20;99682.63;2101267;81;21588;-86
2022/10/01 09:40:55;;;;;;;15.10;11.60;;;;;;;14.08;72.47;99678.60;2082483;83;21150;-87
2022/10/01 09:43:56;;;;;;;14.58;11.00;;;;;;;14.02;72.85;99678.05;2098706;82;21066;-86
2022/10/01 09:46:58;;;;;;;14.30;11.25;;;;;;;13.99;72.96;99672.59;2101569;82;21066;-86
2022/10/01 09:50:04;;;;;;;13.88;11.63;;;;;;;13.94;73.30;99670.22;2093160;82;21538;-82
2022/10/01 09:53:13;;;;;;;13.03;10.88;;;;;;;13.87;73.36;99665.69;2104826;81;21067;-83
2022/10/01 09:56:27;;;;;;;14.70;10.35;;;;;;;13.79;73.18;99657.03;2105617;82;21043;-86
2022/10/01 09:59:34;;;;;;;16.67;10.82;;;;;;;13.75;74.02;99653.95;2107249;81;21513;-88
2022/10/01 10:02:42;;;;;;;12.63;10.68;;;;;;;13.72;74.21;99652.20;2103294;81;21099;-87
2022/10/01 10:05:48;;;;;;;13.15;10.78;;;;;;;13.74;74.20;99651.47;2094287;81;21041;-76
2022/10/01 10:08:49;;;;;;;13.83;10.53;;;;;;;13.79;74.43;99645.85;2103175;81;21525;-84
2022/10/01 10:11:51;;;;;;;15.95;9.93;;;;;;;13.79;73.93;99641.85;2113069;81;21089;-83
2022/10/01 10:14:58;;;;;;;13.08;9.93;;;;;;;13.73;74.08;99639.17;2117333;81;21123;-84
2022/10/01 10:18:16;;;;;;;14.07;10.43;;;;;;;13.72;74.54;99633.02;2110003;81;21094;-84
2022/10/01 10:21:27;;;;;;;12.03;9.60;;;;;;;13.80;74.86;99641.37;2104610;81;21022;-85
2022/10/01 10:24:34;;;;;;;14.83;9.90;;;;;;;13.82;74.80;99630.78;2105372;81;20992;-84
2022/10/01 10:27:35;;;;;;;13.13;10.53;;;;;;;13.80;74.34;99629.38;2102007;81;21026;-86
2022/10/01 10:30:36;;;;;;;12.47;9.90;;;;;;;13.79;74.88;99628.52;2114237;81;21126;-85
2022/10/01 10:34:01;;;;;;;11.50;9.58;;;;;;;13.80;74.76;99622.19;2109245;82;21043;-85
2022/10/01 10:37:12;;;;;;;14.80;10.32;;;;;;;13.82;74.87;99609.45;2098796;81;21086;-80
2022/10/01 10:40:19;;;;;;;12.55;9.93;;;;;;;13.80;74.93;99603.52;2110345;81;21055;-85
2022/10/01 10:43:29;;;;;;;10.93;9.23;;;;;;;13.87;75.22;99595.02;2111663;82;21520;-85
2022/10/01 10:46:34;;;;;;;13.85;9.75;;;;;;;13.96;75.46;99595.65;2116764;81;21090;-85
2022/10/01 10:49:44;;;;;;;13.65;9.18;;;;;;;14.05;74.94;99590.95;2102030;82;21048;-85
2022/10/01 10:52:45;;;;;;;12.45;8.93;;;;;;;14.05;75.03;99585.61;2117047;82;21104;-72
2022/10/01 10:56:00;;;;;;;13.18;9.58;;;;;;;14.14;74.94;99580.42;2115397;82;21061;-84
2022/10/01 10:59:08;;;;;;;12.13;8.85;;;;;;;14.21;75.19;99576.41;2118458;81;21549;-85
2022/10/01 11:02:14;;;;;;;12.53;7.90;;;;;;;14.33;75.00;99571.62;2117981;81;21580;-84
2022/10/01 11:05:30;;;;;;;10.93;7.90;;;;;;;14.44;74.88;99566.67;2112175;81;21051;-85
2022/10/01 11:08:32;;;;;;;13.75;8.85;;;;;;;14.53;74.71;99569.50;2097132;82;21566;-79
2022/10/01 11:11:52;;;;;;;10.95;8.15;;;;;;;14.66;74.55;99553.45;2103279;81;21035;-82
2022/10/01 11:15:08;;;;;;;13.58;9.28;;;;;;;14.78;73.96;99552.30;2113198;81;21050;-83
2022/10/01 11:18:21;;;;;;;16.20;10.35;;;;;;;14.84;73.60;99554.66;2114056;82;21107;-83
2022/10/01 11:22:03;;;;;;;10.45;7.72;;;;;;;14.91;74.17;99547.47;2101465;83;21016;-83
2022/10/01 11:25:49;;;;;;;14.80;7.95;;;;;;;15.00;73.04;99537.67;2115391;82;21104;-83
2022/10/01 11:29:05;;;;;;;8.63;6.60;;;;;;;15.02;73.30;99530.80;2112466;81;21044;-83
2022/10/01 11:32:23;;;;;;;8.68;7.47;;;;;;;15.13;72.92;99526.66;2112142;81;21180;-83
2022/10/01 11:35:49;;;;;;;10.93;6.90;;;;;;;15.13;72.97;99523.47;2104961;82;21074;-83
2022/10/01 11:39:04;;;;;;;12.50;5.95;;;;;;;15.19;73.53;99517.27;2102170;82;21531;-75
2022/10/01 11:42:14;;;;;;;10.13;6.75;;;;;;;15.25;73.25;99511.08;2112222;81;21058;-73
2022/10/01 11:45:20;;;;;;;9.18;6.17;;;;;;;15.26;72.67;99507.91;2096429;82;21039;-75
2022/10/01 11:48:44;;;;;;;6.28;5.67;;;;;;;15.28;72.10;99509.02;2113588;82;21077;-84
2022/10/01 11:52:01;;;;;;;6.45;5.60;;;;;;;15.24;72.33;99502.77;2105360;82;21049;-83
2022/10/01 11:59:02;;;;;;;9.48;5.30;;;;;;;15.30;72.39;99490.92;2118233;81;20975;-84
2022/10/01 12:02:41;;;;;;;9.75;5.92;;;;;;;15.28;72.39;99491.65;2104769;82;21111;-83
2022/10/01 12:05:43;;;;;;;11.25;6.58;;;;;;;15.20;72.20;99488.69;2105723;83;21094;-82
2022/10/01 12:08:52;;;;;;;9.65;6.55;;;;;;;15.14;72.54;99494.36;2106559;81;21474;-81
2022/10/01 12:12:10;;;;;;;9.15;5.72;;;;;;;15.12;72.26;99487.10;2091191;82;21504;-84
2022/10/01 12:15:44;;;;;;;9.98;5.28;;;;;;;15.11;72.50;99488.11;2107183;82;21120;-82
2022/10/01 12:19:05;;;;;;;9.38;4.80;;;;;;;15.12;72.68;99484.42;2121001;81;21054;-80
2022/10/01 12:22:24;;;;;;;8.48;4.90;;;;;;;15.14;72.55;99481.53;2089902;82;21531;-83
2022/10/01 12:25:40;;;;;;;4.78;3.72;;;;;;;15.20;72.56;99478.84;2121657;81;21401;-81
2022/10/01 12:29:09;;;;;;;4.33;3.67;;;;;;;15.31;72.08;99468.50;2073598;82;21050;-81
2022/10/01 12:32:49;;;;;;;12.45;8.73;;;;;;;15.38;70.81;99467.97;2109707;82;21397;-84
2022/10/01 12:36:21;;;;;;;14.00;8.43;;;;;;;15.49;70.08;99467.28;2102621;83;21120;-82
2022/10/01 12:39:38;;;;;;;7.78;4.50;;;;;;;15.57;69.55;99459.02;2107513;83;21068;-84
2022/10/01 13:46:09;;;;;;;2.92;2.25;;;;;;;16.41;61.13;99391.33;2205259;80;22797;-79
2022/10/01 13:49:27;;;;;;;3.33;2.47;;;;;;;16.35;61.25;99398.91;2170817;81;21058;-81
2022/10/01 13:52:28;;;;;;;3.10;2.33;;;;;;;16.31;59.87;99395.87;2179248;81;21792;-86
2022/10/01 13:55:30;;;;;;;8.13;2.30;;;;;;;16.27;60.65;99390.64;2150228;81;21511;-77
2022/10/01 13:58:44;;;;;;;3.65;2.98;;;;;;;16.22;60.85;99386.99;2175443;81;21009;-77
2022/10/01 14:01:49;;;;;;;2.60;2.40;;;;;;;16.17;60.92;99385.52;2169977;80;21056;-76
2022/10/01 14:04:50;;;;;;;2.15;1.90;;;;;;;16.16;60.04;99383.34;2172341;81;21038;-76
2022/10/01 14:08:00;;;;;;;3.10;2.25;;;;;;;16.06;60.49;99377.17;2176286;81;21076;-77
2022/10/01 14:18:02;;;;;;;2.87;2.58;;;;;;;15.87;60.47;99371.48;2169083;81;21064;-75
2022/10/01 14:21:14;;;;;;;4.65;2.00;;;;;;;15.81;60.39;99363.81;2172051;81;21526;-75
2022/10/01 14:24:39;;;;;;;3.22;2.50;;;;;;;15.75;60.63;99360.68;2174769;81;20984;-75
2022/10/01 14:28:18;;;;;;;3.72;2.08;;;;;;;15.72;60.74;99354.95;2177100;81;21043;-75
2022/10/01 14:31:33;;;;;;;3.37;2.60;;;;;;;15.65;60.48;99353.13;2136152;81;21037;-75
2022/10/01 14:35:12;;;;;;;3.17;2.40;;;;;;;15.60;61.13;99347.61;2165722;81;21000;-75
2022/10/01 14:38:20;;;;;;;3.72;2.87;;;;;;;15.55;61.20;99343.95;2170801;81;21468;-75
2022/10/01 14:41:23;;;;;;;3.30;3.00;;;;;;;15.46;60.90;99335.39;2171248;81;21059;-75
2022/10/01 14:44:46;;;;;;;3.85;2.25;;;;;;;15.38;61.31;99333.80;2171026;80;21555;-77
2022/10/01 14:47:48;;;;;;;2.55;2.35;;;;;;;15.30;61.45;99327.38;2170791;81;21515;-80
2022/10/01 14:50:54;;;;;;;3.42;2.72;;;;;;;15.21;61.39;99330.02;2175592;81;21053;-76
2022/10/01 14:53:58;;;;;;;3.45;3.15;;;;;;;15.15;61.50;99326.88;2177823;81;21116;-78
2022/10/01 14:57:00;;;;;;;7.20;5.15;;;;;;;15.06;61.63;99321.46;2175017;81;21511;-76
2022/10/01 15:00:10;;;;;;;10.08;6.60;;;;;;;15.00;61.96;99325.81;2122688;83;21015;-78
2022/10/01 15:03:16;;;;;;;11.15;6.47;;;;;;;14.95;62.14;99322.95;2097715;82;21037;-77
2022/10/01 15:06:26;;;;;;;12.63;7.85;;;;;;;14.88;62.28;99323.01;2132365;83;21061;-76
2022/10/01 15:09:32;;;;;;;9.43;6.85;;;;;;;14.81;62.60;99315.56;2136716;83;21349;-77
2022/10/01 15:12:40;;;;;;;9.23;5.40;;;;;;;14.73;62.66;99309.95;2090752;84;21663;-78
2022/10/01 15:15:42;;;;;;;5.80;4.15;;;;;;;14.68;62.83;99308.95;2131675;83;20998;-76
2022/10/01 15:18:48;;;;;;;6.60;4.97;;;;;;;14.61;63.08;99306.30;2096040;84;21105;-76
2022/10/01 15:21:54;;;;;;;5.75;4.70;;;;;;;14.58;63.71;99312.06;2088434;84;21778;-76
2022/10/01 15:24:59;;;;;;;6.05;3.77;;;;;;;14.52;64.10;99322.25;2113032;84;21010;-76
2022/10/01 15:28:01;;;;;;;14.63;3.85;;;;;;;14.42;64.79;99343.22;2116734;83;21056;-76
2022/10/01 15:31:05;;;;;;;5.45;2.22;;;;;;;14.20;66.12;99376.83;2112558;83;21040;-75
2022/10/01 15:34:13;;;;;;;4.20;2.40;;;;;;;13.71;66.02;99384.75;2111817;84;21026;-76
2022/10/01 15:37:33;;;;;;;5.40;2.70;;;;;;;13.26;66.89;99380.50;2115512;84;21563;-75
2022/10/01 15:40:35;;;;;;;4.08;2.50;;;;;;;12.88;67.77;99377.00;2118142;84;21085;-77
2022/10/01 15:43:40;;;;;;;2.65;2.17;;;;;;;12.56;68.73;99384.66;2116573;84;21440;-76
2022/10/01 15:46:41;;;;;;;5.90;2.40;;;;;;;12.32;69.31;99380.62;2118617;84;21114;-76